sensor_id;sensor_type;location;lat;lon;timestamp;P1;durP1;ratioP1;P2;durP2;ratioP2
13672;SDS011;6909;52.202;9.876;2022-09-04T04:43:58;2.97;;;2.23;;
13672;SDS011;6909;52.202;9.876;2022-09-04T04:46:39;3.63;;;2.50;;
13672;SDS011;6909;52.202;9.876;2022-09-04T04:52:10;3.87;;;2.37;;
13672;SDS011;6909;52.202;9.876;2022-09-04T04:55:03;2.80;;;2.27;;
13672;SDS011;6909;52.202;9.876;2022-09-04T04:57:43;2.77;;;2.37;;
13672;SDS011;6909;52.202;9.876;2022-09-04T05:00:20;4.57;;;2.27;;
13672;SDS011;6909;52.202;9.876;2022-09-04T05:02:57;4.13;;;2.60;;
13672;SDS011;6909;52.202;9.876;2022-09-04T05:08:19;5.80;;;3.07;;
13672;SDS011;6909;52.202;9.876;2022-09-04T05:10:52;2.83;;;2.53;;
13672;SDS011;6909;52.202;9.876;2022-09-04T05:13:21;3.47;;;2.43;;
13672;SDS011;6909;52.202;9.876;2022-09-04T05:15:59;4.10;;;3.27;;
13672;SDS011;6909;52.202;9.876;2022-09-04T05:18:34;3.57;;;3.07;;
13672;SDS011;6909;52.202;9.876;2022-09-04T05:21:11;4.47;;;2.77;;
13672;SDS011;6909;52.202;9.876;2022-09-04T05:23:45;3.27;;;2.97;;
13672;SDS011;6909;52.202;9.876;2022-09-04T05:26:20;3.70;;;2.60;;
13672;SDS011;6909;52.202;9.876;2022-09-04T05:28:54;3.53;;;2.57;;
13672;SDS011;6909;52.202;9.876;2022-09-04T05:31:29;3.60;;;2.70;;
13672;SDS011;6909;52.202;9.876;2022-09-04T05:34:06;5.70;;;2.93;;
13672;SDS011;6909;52.202;9.876;2022-09-04T05:36:41;2.73;;;2.03;;
13672;SDS011;6909;52.202;9.876;2022-09-04T05:39:16;3.05;;;2.63;;
13672;SDS011;6909;52.202;9.876;2022-09-04T05:41:59;3.58;;;2.53;;
13672;SDS011;6909;52.202;9.876;2022-09-04T05:44:38;2.72;;;2.38;;
13672;SDS011;6909;52.202;9.876;2022-09-04T05:47:24;2.95;;;2.67;;
13672;SDS011;6909;52.202;9.876;2022-09-04T05:50:10;3.10;;;2.80;;
13672;SDS011;6909;52.202;9.876;2022-09-04T05:52:54;2.85;;;2.63;;
13672;SDS011;6909;52.202;9.876;2022-09-04T05:55:43;6.22;;;2.60;;
13672;SDS011;6909;52.202;9.876;2022-09-04T05:58:30;4.85;;;3.08;;
13672;SDS011;6909;52.202;9.876;2022-09-04T06:01:07;3.15;;;2.85;;
13672;SDS011;6909;52.202;9.876;2022-09-04T06:03:49;2.97;;;2.67;;
13672;SDS011;6909;52.202;9.876;2022-09-04T06:06:31;2.55;;;2.35;;
13672;SDS011;6909;52.202;9.876;2022-09-04T06:09:22;2.90;;;2.65;;
13672;SDS011;6909;52.202;9.876;2022-09-04T06:12:01;2.53;;;2.33;;
13672;SDS011;6909;52.202;9.876;2022-09-04T06:14:43;4.13;;;2.53;;
13672;SDS011;6909;52.202;9.876;2022-09-04T06:17:45;4.00;;;2.95;;
13672;SDS011;6909;52.202;9.876;2022-09-04T06:20:31;3.83;;;3.40;;
13672;SDS011;6909;52.202;9.876;2022-09-04T06:23:12;3.40;;;2.95;;
13672;SDS011;6909;52.202;9.876;2022-09-04T06:26:16;2.95;;;2.75;;
13672;SDS011;6909;52.202;9.876;2022-09-04T06:29:04;3.42;;;3.05;;
13672;SDS011;6909;52.202;9.876;2022-09-04T06:31:56;3.00;;;2.70;;
13672;SDS011;6909;52.202;9.876;2022-09-04T06:34:42;3.47;;;3.22;;
13672;SDS011;6909;52.202;9.876;2022-09-04T06:37:25;3.05;;;2.75;;
13672;SDS011;6909;52.202;9.876;2022-09-04T06:40:10;3.78;;;2.83;;
13672;SDS011;6909;52.202;9.876;2022-09-04T06:42:54;3.17;;;2.90;;
13672;SDS011;6909;52.202;9.876;2022-09-04T06:45:33;3.67;;;3.38;;
13672;SDS011;6909;52.202;9.876;2022-09-04T06:48:12;3.35;;;2.83;;
13672;SDS011;6909;52.202;9.876;2022-09-04T06:50:51;3.50;;;3.20;;
13672;SDS011;6909;52.202;9.876;2022-09-04T06:53:30;4.40;;;4.00;;
13672;SDS011;6909;52.202;9.876;2022-09-04T06:56:14;3.88;;;3.33;;
13672;SDS011;6909;52.202;9.876;2022-09-04T06:59:05;3.50;;;3.20;;
13672;SDS011;6909;52.202;9.876;2022-09-04T07:01:44;3.90;;;3.25;;
13672;SDS011;6909;52.202;9.876;2022-09-04T07:04:20;4.82;;;3.22;;
13672;SDS011;6909;52.202;9.876;2022-09-04T07:06:57;3.97;;;3.58;;
13672;SDS011;6909;52.202;9.876;2022-09-04T07:09:36;3.70;;;3.40;;
13672;SDS011;6909;52.202;9.876;2022-09-04T07:18:07;4.28;;;3.40;;
13672;SDS011;6909;52.202;9.876;2022-09-04T07:20:45;3.70;;;3.15;;
13672;SDS011;6909;52.202;9.876;2022-09-04T07:23:26;4.13;;;3.38;;
13672;SDS011;6909;52.202;9.876;2022-09-04T07:26:04;6.30;;;3.50;;
13672;SDS011;6909;52.202;9.876;2022-09-04T07:28:47;3.42;;;3.10;;
13672;SDS011;6909;52.202;9.876;2022-09-04T07:31:28;3.50;;;3.20;;
13672;SDS011;6909;52.202;9.876;2022-09-04T07:34:00;5.28;;;3.30;;
13672;SDS011;6909;52.202;9.876;2022-09-04T07:36:35;3.30;;;2.97;;
13672;SDS011;6909;52.202;9.876;2022-09-04T07:39:08;3.08;;;2.80;;
13672;SDS011;6909;52.202;9.876;2022-09-04T07:41:45;3.58;;;2.72;;
13672;SDS011;6909;52.202;9.876;2022-09-04T07:44:19;4.15;;;3.53;;
13672;SDS011;6909;52.202;9.876;2022-09-04T07:46:54;3.10;;;2.83;;
13672;SDS011;6909;52.202;9.876;2022-09-04T07:49:29;4.47;;;3.42;;
13672;SDS011;6909;52.202;9.876;2022-09-04T07:52:02;3.67;;;3.20;;
13672;SDS011;6909;52.202;9.876;2022-09-04T07:54:43;4.10;;;3.15;;
13672;SDS011;6909;52.202;9.876;2022-09-04T07:57:24;4.78;;;2.78;;
13672;SDS011;6909;52.202;9.876;2022-09-04T08:00:06;5.65;;;3.30;;
13672;SDS011;6909;52.202;9.876;2022-09-04T08:02:41;3.45;;;3.00;;
13672;SDS011;6909;52.202;9.876;2022-09-04T08:05:21;3.60;;;3.05;;
13672;SDS011;6909;52.202;9.876;2022-09-04T08:08:12;3.83;;;2.97;;
13672;SDS011;6909;52.202;9.876;2022-09-04T08:10:53;3.40;;;3.10;;
13672;SDS011;6909;52.202;9.876;2022-09-04T08:13:33;5.85;;;3.58;;
13672;SDS011;6909;52.202;9.876;2022-09-04T08:16:22;3.63;;;3.10;;
13672;SDS011;6909;52.202;9.876;2022-09-04T08:19:02;3.30;;;2.90;;
13672;SDS011;6909;52.202;9.876;2022-09-04T08:21:42;5.68;;;3.40;;
13672;SDS011;6909;52.202;9.876;2022-09-04T08:24:26;4.53;;;3.40;;
13672;SDS011;6909;52.202;9.876;2022-09-04T08:27:25;4.22;;;3.22;;
13672;SDS011;6909;52.202;9.876;2022-09-04T08:30:07;3.80;;;3.10;;
13672;SDS011;6909;52.202;9.876;2022-09-04T08:35:46;3.28;;;2.97;;
13672;SDS011;6909;52.202;9.876;2022-09-04T08:41:30;4.18;;;2.95;;
13672;SDS011;6909;52.202;9.876;2022-09-04T08:44:25;3.40;;;2.75;;
13672;SDS011;6909;52.202;9.876;2022-09-04T08:50:30;3.10;;;2.80;;
13672;SDS011;6909;52.202;9.876;2022-09-04T08:56:05;4.55;;;3.40;;
13672;SDS011;6909;52.202;9.876;2022-09-04T08:58:51;4.38;;;3.20;;
13672;SDS011;6909;52.202;9.876;2022-09-04T09:02:00;4.63;;;2.95;;
13672;SDS011;6909;52.202;9.876;2022-09-04T09:08:05;5.60;;;3.03;;
13672;SDS011;6909;52.202;9.876;2022-09-04T09:10:57;4.93;;;3.63;;
13672;SDS011;6909;52.202;9.876;2022-09-04T09:16:41;5.85;;;3.28;;
13672;SDS011;6909;52.202;9.876;2022-09-04T09:19:19;3.20;;;2.90;;
13672;SDS011;6909;52.202;9.876;2022-09-04T09:22:02;3.55;;;3.25;;
13672;SDS011;6909;52.202;9.876;2022-09-04T09:24:44;3.42;;;3.00;;
13672;SDS011;6909;52.202;9.876;2022-09-04T09:27:44;4.43;;;3.10;;
13672;SDS011;6909;52.202;9.876;2022-09-04T09:30:35;3.60;;;2.80;;
13672;SDS011;6909;52.202;9.876;2022-09-04T09:36:25;3.10;;;2.80;;
13672;SDS011;6909;52.202;9.876;2022-09-04T09:39:20;4.22;;;3.08;;
13672;SDS011;6909;52.202;9.876;2022-09-04T09:42:15;4.30;;;2.92;;
13672;SDS011;6909;52.202;9.876;2022-09-04T09:45:25;4.10;;;3.47;;
13672;SDS011;6909;52.202;9.876;2022-09-04T09:48:25;5.40;;;3.30;;
13672;SDS011;6909;52.202;9.876;2022-09-04T09:51:21;3.95;;;3.28;;
13672;SDS011;6909;52.202;9.876;2022-09-04T09:54:14;4.72;;;3.63;;
13672;SDS011;6909;52.202;9.876;2022-09-04T10:00:31;4.22;;;3.50;;
13672;SDS011;6909;52.202;9.876;2022-09-04T10:06:26;4.28;;;3.55;;
13672;SDS011;6909;52.202;9.876;2022-09-04T10:09:40;3.78;;;3.22;;
13672;SDS011;6909;52.202;9.876;2022-09-04T10:15:31;7.03;;;3.42;;
13672;SDS011;6909;52.202;9.876;2022-09-04T10:18:43;4.07;;;3.08;;
13672;SDS011;6909;52.202;9.876;2022-09-04T10:27:59;4.63;;;3.15;;
13672;SDS011;6909;52.202;9.876;2022-09-04T10:30:46;5.35;;;3.05;;
13672;SDS011;6909;52.202;9.876;2022-09-04T10:33:30;4.07;;;3.10;;
13672;SDS011;6909;52.202;9.876;2022-09-04T10:36:07;3.78;;;3.20;;
13672;SDS011;6909;52.202;9.876;2022-09-04T10:38:46;3.10;;;2.80;;
13672;SDS011;6909;52.202;9.876;2022-09-04T10:41:48;3.42;;;2.92;;
13672;SDS011;6909;52.202;9.876;2022-09-04T10:47:17;4.93;;;3.00;;
13672;SDS011;6909;52.202;9.876;2022-09-04T10:50:01;3.10;;;2.80;;
13672;SDS011;6909;52.202;9.876;2022-09-04T10:52:59;3.00;;;2.60;;
13672;SDS011;6909;52.202;9.876;2022-09-04T10:58:39;2.75;;;2.53;;
13672;SDS011;6909;52.202;9.876;2022-09-04T11:01:24;3.70;;;2.70;;
13672;SDS011;6909;52.202;9.876;2022-09-04T11:04:15;3.40;;;2.63;;
13672;SDS011;6909;52.202;9.876;2022-09-04T11:10:18;3.10;;;2.55;;
13672;SDS011;6909;52.202;9.876;2022-09-04T11:12:57;3.65;;;2.42;;
13672;SDS011;6909;52.202;9.876;2022-09-04T11:15:51;3.33;;;2.70;;
13672;SDS011;6909;52.202;9.876;2022-09-04T11:18:42;2.83;;;2.58;;
13672;SDS011;6909;52.202;9.876;2022-09-04T11:21:40;3.75;;;2.58;;
13672;SDS011;6909;52.202;9.876;2022-09-04T11:24:41;2.80;;;2.60;;
13672;SDS011;6909;52.202;9.876;2022-09-04T11:27:39;3.22;;;2.80;;
13672;SDS011;6909;52.202;9.876;2022-09-04T11:30:25;3.20;;;2.70;;
13672;SDS011;6909;52.202;9.876;2022-09-04T11:33:17;3.03;;;2.60;;
13672;SDS011;6909;52.202;9.876;2022-09-04T11:42:27;3.13;;;2.55;;
13672;SDS011;6909;52.202;9.876;2022-09-04T11:45:03;2.88;;;2.58;;
13672;SDS011;6909;52.202;9.876;2022-09-04T11:50:55;2.92;;;2.42;;
13672;SDS011;6909;52.202;9.876;2022-09-04T11:53:47;3.17;;;2.88;;
13672;SDS011;6909;52.202;9.876;2022-09-04T11:56:37;2.78;;;2.33;;
13672;SDS011;6909;52.202;9.876;2022-09-04T11:59:30;3.28;;;2.75;;
13672;SDS011;6909;52.202;9.876;2022-09-04T12:05:23;2.35;;;2.15;;
13672;SDS011;6909;52.202;9.876;2022-09-04T12:08:12;3.30;;;3.00;;
13672;SDS011;6909;52.202;9.876;2022-09-04T12:11:00;3.25;;;2.50;;
13672;SDS011;6909;52.202;9.876;2022-09-04T12:13:57;4.07;;;2.88;;
13672;SDS011;6909;52.202;9.876;2022-09-04T12:17:03;2.25;;;2.05;;
13672;SDS011;6909;52.202;9.876;2022-09-04T12:20:14;3.95;;;2.50;;
13672;SDS011;6909;52.202;9.876;2022-09-04T12:23:11;2.40;;;2.20;;
13672;SDS011;6909;52.202;9.876;2022-09-04T12:25:54;2.88;;;2.05;;
13672;SDS011;6909;52.202;9.876;2022-09-04T12:28:55;2.78;;;2.58;;
13672;SDS011;6909;52.202;9.876;2022-09-04T12:31:56;2.72;;;2.50;;
13672;SDS011;6909;52.202;9.876;2022-09-04T12:37:55;2.88;;;2.35;;
13672;SDS011;6909;52.202;9.876;2022-09-04T12:40:37;5.20;;;2.55;;
13672;SDS011;6909;52.202;9.876;2022-09-04T12:43:19;3.03;;;2.60;;
13672;SDS011;6909;52.202;9.876;2022-09-04T12:45:59;2.42;;;2.22;;
13672;SDS011;6909;52.202;9.876;2022-09-04T12:48:42;3.13;;;2.50;;
13672;SDS011;6909;52.202;9.876;2022-09-04T12:51:19;2.58;;;2.20;;
13672;SDS011;6909;52.202;9.876;2022-09-04T12:53:59;2.97;;;2.63;;
13672;SDS011;6909;52.202;9.876;2022-09-04T12:56:38;3.28;;;2.50;;
13672;SDS011;6909;52.202;9.876;2022-09-04T12:59:18;3.05;;;2.42;;
13672;SDS011;6909;52.202;9.876;2022-09-04T13:01:59;2.85;;;2.50;;
13672;SDS011;6909;52.202;9.876;2022-09-04T13:04:34;3.17;;;2.70;;
13672;SDS011;6909;52.202;9.876;2022-09-04T13:07:11;4.70;;;2.67;;
13672;SDS011;6909;52.202;9.876;2022-09-04T13:09:52;3.05;;;2.30;;
13672;SDS011;6909;52.202;9.876;2022-09-04T13:12:25;2.50;;;2.30;;
13672;SDS011;6909;52.202;9.876;2022-09-04T13:15:02;2.47;;;2.28;;
13672;SDS011;6909;52.202;9.876;2022-09-04T13:17:44;2.17;;;2.05;;
13672;SDS011;6909;52.202;9.876;2022-09-04T13:20:24;2.15;;;2.05;;
13672;SDS011;6909;52.202;9.876;2022-09-04T13:23:04;2.53;;;2.33;;
13672;SDS011;6909;52.202;9.876;2022-09-04T13:25:50;2.72;;;2.30;;
13672;SDS011;6909;52.202;9.876;2022-09-04T13:28:30;2.50;;;2.30;;
13672;SDS011;6909;52.202;9.876;2022-09-04T13:31:14;2.42;;;2.10;;
13672;SDS011;6909;52.202;9.876;2022-09-04T13:33:59;2.45;;;2.20;;
13672;SDS011;6909;52.202;9.876;2022-09-04T13:36:34;2.53;;;2.20;;
13672;SDS011;6909;52.202;9.876;2022-09-04T13:39:18;2.70;;;2.50;;
13672;SDS011;6909;52.202;9.876;2022-09-04T13:42:05;2.28;;;2.13;;
13672;SDS011;6909;52.202;9.876;2022-09-04T13:45:00;2.58;;;2.17;;
13672;SDS011;6909;52.202;9.876;2022-09-04T13:47:34;2.90;;;2.15;;
13672;SDS011;6909;52.202;9.876;2022-09-04T13:50:07;2.40;;;2.20;;
13672;SDS011;6909;52.202;9.876;2022-09-04T13:52:42;1.98;;;1.88;;
13672;SDS011;6909;52.202;9.876;2022-09-04T13:55:16;2.47;;;2.28;;
13672;SDS011;6909;52.202;9.876;2022-09-04T13:57:49;4.28;;;2.80;;
13672;SDS011;6909;52.202;9.876;2022-09-04T14:00:22;2.88;;;2.30;;
13672;SDS011;6909;52.202;9.876;2022-09-04T14:02:49;2.70;;;2.50;;
13672;SDS011;6909;52.202;9.876;2022-09-04T14:05:23;2.75;;;2.53;;
13672;SDS011;6909;52.202;9.876;2022-09-04T14:07:57;4.22;;;2.50;;
13672;SDS011;6909;52.202;9.876;2022-09-04T14:10:29;3.60;;;2.45;;
13672;SDS011;6909;52.202;9.876;2022-09-04T14:13:09;2.97;;;2.25;;
13672;SDS011;6909;52.202;9.876;2022-09-04T14:15:50;2.35;;;2.15;;
13672;SDS011;6909;52.202;9.876;2022-09-04T14:21:30;2.65;;;2.45;;
13672;SDS011;6909;52.202;9.876;2022-09-04T14:24:09;2.65;;;2.42;;
13672;SDS011;6909;52.202;9.876;2022-09-04T14:26:47;2.83;;;2.40;;
13672;SDS011;6909;52.202;9.876;2022-09-04T14:29:21;4.05;;;2.30;;
13672;SDS011;6909;52.202;9.876;2022-09-04T14:31:59;6.47;;;2.65;;
13672;SDS011;6909;52.202;9.876;2022-09-04T14:34:35;3.25;;;2.30;;
13672;SDS011;6909;52.202;9.876;2022-09-04T14:37:14;2.67;;;2.47;;
13672;SDS011;6909;52.202;9.876;2022-09-04T14:39:51;2.83;;;2.63;;
13672;SDS011;6909;52.202;9.876;2022-09-04T14:42:29;2.47;;;2.28;;
13672;SDS011;6909;52.202;9.876;2022-09-04T14:45:12;2.88;;;2.10;;
13672;SDS011;6909;52.202;9.876;2022-09-04T14:47:47;2.60;;;2.40;;
13672;SDS011;6909;52.202;9.876;2022-09-04T14:50:19;2.75;;;2.25;;
13672;SDS011;6909;52.202;9.876;2022-09-04T14:52:50;2.42;;;2.20;;
13672;SDS011;6909;52.202;9.876;2022-09-04T14:55:24;2.85;;;2.30;;
13672;SDS011;6909;52.202;9.876;2022-09-04T14:57:54;2.38;;;2.15;;
13672;SDS011;6909;52.202;9.876;2022-09-04T15:00:26;2.40;;;2.20;;
13672;SDS011;6909;52.202;9.876;2022-09-04T15:02:55;2.20;;;2.10;;
13672;SDS011;6909;52.202;9.876;2022-09-04T15:05:28;2.40;;;2.25;;
13672;SDS011;6909;52.202;9.876;2022-09-04T15:07:58;2.58;;;2.38;;
13672;SDS011;6909;52.202;9.876;2022-09-04T15:10:32;3.25;;;2.45;;
13672;SDS011;6909;52.202;9.876;2022-09-04T15:13:21;2.50;;;2.30;;
13672;SDS011;6909;52.202;9.876;2022-09-04T15:16:07;4.20;;;2.30;;
13672;SDS011;6909;52.202;9.876;2022-09-04T15:18:44;2.45;;;2.25;;
13672;SDS011;6909;52.202;9.876;2022-09-04T15:21:22;3.55;;;2.25;;
13672;SDS011;6909;52.202;9.876;2022-09-04T15:23:58;2.58;;;2.38;;
13672;SDS011;6909;52.202;9.876;2022-09-04T15:26:30;2.17;;;2.08;;
13672;SDS011;6909;52.202;9.876;2022-09-04T15:29:03;2.50;;;2.30;;
13672;SDS011;6909;52.202;9.876;2022-09-04T15:31:35;4.93;;;2.20;;
13672;SDS011;6909;52.202;9.876;2022-09-04T15:34:07;2.97;;;2.30;;
13672;SDS011;6909;52.202;9.876;2022-09-04T15:36:37;2.67;;;2.40;;
13672;SDS011;6909;52.202;9.876;2022-09-04T15:39:05;2.65;;;2.45;;
13672;SDS011;6909;52.202;9.876;2022-09-04T15:41:41;2.75;;;2.30;;
13672;SDS011;6909;52.202;9.876;2022-09-04T15:44:13;2.75;;;2.55;;
13672;SDS011;6909;52.202;9.876;2022-09-04T15:46:48;2.65;;;2.45;;
13672;SDS011;6909;52.202;9.876;2022-09-04T15:49:23;2.40;;;2.20;;
13672;SDS011;6909;52.202;9.876;2022-09-04T15:52:04;3.03;;;2.40;;
13672;SDS011;6909;52.202;9.876;2022-09-04T15:54:52;2.47;;;2.28;;
13672;SDS011;6909;52.202;9.876;2022-09-04T15:57:30;4.28;;;2.63;;
13672;SDS011;6909;52.202;9.876;2022-09-04T16:00:07;2.60;;;2.40;;
13672;SDS011;6909;52.202;9.876;2022-09-04T16:02:37;2.45;;;2.28;;
13672;SDS011;6909;52.202;9.876;2022-09-04T16:05:18;2.92;;;2.55;;
13672;SDS011;6909;52.202;9.876;2022-09-04T16:07:53;2.65;;;2.10;;
13672;SDS011;6909;52.202;9.876;2022-09-04T16:10:28;3.47;;;2.58;;
13672;SDS011;6909;52.202;9.876;2022-09-04T16:13:12;2.38;;;2.17;;
13672;SDS011;6909;52.202;9.876;2022-09-04T16:15:56;2.88;;;2.67;;
13672;SDS011;6909;52.202;9.876;2022-09-04T16:18:28;2.50;;;2.30;;
13672;SDS011;6909;52.202;9.876;2022-09-04T16:21:11;3.83;;;2.58;;
13672;SDS011;6909;52.202;9.876;2022-09-04T16:23:46;2.90;;;2.40;;
13672;SDS011;6909;52.202;9.876;2022-09-04T16:26:15;4.88;;;3.10;;
13672;SDS011;6909;52.202;9.876;2022-09-04T16:28:47;2.67;;;2.47;;
13672;SDS011;6909;52.202;9.876;2022-09-04T16:31:21;2.92;;;2.63;;
13672;SDS011;6909;52.202;9.876;2022-09-04T16:33:55;3.22;;;2.00;;
13672;SDS011;6909;52.202;9.876;2022-09-04T16:36:25;2.30;;;2.10;;
13672;SDS011;6909;52.202;9.876;2022-09-04T16:38:59;4.70;;;2.65;;
13672;SDS011;6909;52.202;9.876;2022-09-04T16:41:36;2.58;;;2.38;;
13672;SDS011;6909;52.202;9.876;2022-09-04T16:44:10;2.88;;;2.67;;
13672;SDS011;6909;52.202;9.876;2022-09-04T16:46:43;3.47;;;2.38;;
13672;SDS011;6909;52.202;9.876;2022-09-04T16:49:21;2.45;;;2.25;;
13672;SDS011;6909;52.202;9.876;2022-09-04T16:51:55;2.90;;;2.65;;
13672;SDS011;6909;52.202;9.876;2022-09-04T16:54:28;2.75;;;2.55;;
13672;SDS011;6909;52.202;9.876;2022-09-04T16:57:00;3.28;;;2.97;;
13672;SDS011;6909;52.202;9.876;2022-09-04T16:59:39;2.40;;;2.10;;
13672;SDS011;6909;52.202;9.876;2022-09-04T17:02:16;2.85;;;2.45;;
13672;SDS011;6909;52.202;9.876;2022-09-04T17:04:48;2.60;;;2.50;;
13672;SDS011;6909;52.202;9.876;2022-09-04T17:07:18;2.80;;;2.60;;
13672;SDS011;6909;52.202;9.876;2022-09-04T17:09:51;2.88;;;2.58;;
13672;SDS011;6909;52.202;9.876;2022-09-04T17:12:29;3.90;;;3.40;;
13672;SDS011;6909;52.202;9.876;2022-09-04T17:15:07;3.47;;;2.53;;
13672;SDS011;6909;52.202;9.876;2022-09-04T17:17:41;3.17;;;2.70;;
13672;SDS011;6909;52.202;9.876;2022-09-04T17:20:11;2.63;;;2.42;;
13672;SDS011;6909;52.202;9.876;2022-09-04T17:22:49;3.08;;;2.78;;
13672;SDS011;6909;52.202;9.876;2022-09-04T17:25:26;3.00;;;2.70;;
13672;SDS011;6909;52.202;9.876;2022-09-04T17:27:58;2.92;;;2.65;;
13672;SDS011;6909;52.202;9.876;2022-09-04T17:30:45;4.25;;;3.00;;
13672;SDS011;6909;52.202;9.876;2022-09-04T17:33:16;3.03;;;2.60;;
13672;SDS011;6909;52.202;9.876;2022-09-04T17:35:51;3.00;;;2.70;;
13672;SDS011;6909;52.202;9.876;2022-09-04T17:38:28;4.88;;;2.72;;
13672;SDS011;6909;52.202;9.876;2022-09-04T17:41:03;6.05;;;2.70;;
13672;SDS011;6909;52.202;9.876;2022-09-04T17:43:40;7.57;;;2.97;;
13672;SDS011;6909;52.202;9.876;2022-09-04T17:46:26;3.88;;;3.15;;
13672;SDS011;6909;52.202;9.876;2022-09-04T17:48:58;3.60;;;2.80;;
13672;SDS011;6909;52.202;9.876;2022-09-04T17:51:34;4.72;;;2.90;;
13672;SDS011;6909;52.202;9.876;2022-09-04T17:54:03;4.68;;;3.20;;
13672;SDS011;6909;52.202;9.876;2022-09-04T17:56:36;2.67;;;2.40;;
13672;SDS011;6909;52.202;9.876;2022-09-04T17:59:06;4.75;;;2.78;;
13672;SDS011;6909;52.202;9.876;2022-09-04T18:01:40;3.80;;;2.67;;
13672;SDS011;6909;52.202;9.876;2022-09-04T18:04:15;3.05;;;2.75;;
13672;SDS011;6909;52.202;9.876;2022-09-04T18:06:53;3.47;;;2.83;;
13672;SDS011;6909;52.202;9.876;2022-09-04T18:09:25;5.30;;;2.80;;
13672;SDS011;6909;52.202;9.876;2022-09-04T18:11:58;2.97;;;2.70;;
13672;SDS011;6909;52.202;9.876;2022-09-04T18:14:35;4.22;;;2.75;;
13672;SDS011;6909;52.202;9.876;2022-09-04T18:17:09;2.83;;;2.63;;
13672;SDS011;6909;52.202;9.876;2022-09-04T18:19:43;2.92;;;2.70;;
13672;SDS011;6909;52.202;9.876;2022-09-04T18:22:19;3.80;;;3.00;;
13672;SDS011;6909;52.202;9.876;2022-09-04T18:24:52;4.07;;;3.13;;
13672;SDS011;6909;52.202;9.876;2022-09-04T18:27:27;4.35;;;2.83;;
13672;SDS011;6909;52.202;9.876;2022-09-04T18:30:00;3.30;;;3.00;;
13672;SDS011;6909;52.202;9.876;2022-09-04T18:32:41;2.70;;;2.50;;
13672;SDS011;6909;52.202;9.876;2022-09-04T18:35:16;3.60;;;2.83;;
13672;SDS011;6909;52.202;9.876;2022-09-04T18:37:48;3.42;;;2.58;;
13672;SDS011;6909;52.202;9.876;2022-09-04T18:40:20;3.50;;;2.83;;
13672;SDS011;6909;52.202;9.876;2022-09-04T18:42:50;3.20;;;2.90;;
13672;SDS011;6909;52.202;9.876;2022-09-04T18:45:24;3.83;;;2.92;;
13672;SDS011;6909;52.202;9.876;2022-09-04T18:47:57;3.22;;;2.92;;
13672;SDS011;6909;52.202;9.876;2022-09-04T18:50:28;3.13;;;2.80;;
13672;SDS011;6909;52.202;9.876;2022-09-04T18:52:58;3.30;;;3.00;;
13672;SDS011;6909;52.202;9.876;2022-09-04T18:55:34;3.25;;;2.80;;
13672;SDS011;6909;52.202;9.876;2022-09-04T18:58:22;5.43;;;2.72;;
13672;SDS011;6909;52.202;9.876;2022-09-04T19:00:59;4.15;;;3.20;;
13672;SDS011;6909;52.202;9.876;2022-09-04T19:03:35;3.35;;;3.05;;
13672;SDS011;6909;52.202;9.876;2022-09-04T19:06:09;3.90;;;3.00;;
13672;SDS011;6909;52.202;9.876;2022-09-04T19:08:38;2.95;;;2.72;;
13672;SDS011;6909;52.202;9.876;2022-09-04T19:11:13;2.80;;;2.60;;
13672;SDS011;6909;52.202;9.876;2022-09-04T19:13:46;2.92;;;2.72;;
13672;SDS011;6909;52.202;9.876;2022-09-04T19:16:17;3.53;;;2.60;;
13672;SDS011;6909;52.202;9.876;2022-09-04T19:18:50;2.70;;;2.50;;
13672;SDS011;6909;52.202;9.876;2022-09-04T19:21:30;2.70;;;2.50;;
13672;SDS011;6909;52.202;9.876;2022-09-04T19:24:19;3.08;;;2.60;;
13672;SDS011;6909;52.202;9.876;2022-09-04T19:27:04;3.22;;;2.38;;
13672;SDS011;6909;52.202;9.876;2022-09-04T19:29:47;5.20;;;2.80;;
13672;SDS011;6909;52.202;9.876;2022-09-04T19:32:19;2.80;;;2.60;;
13672;SDS011;6909;52.202;9.876;2022-09-04T19:34:55;3.00;;;2.63;;
13672;SDS011;6909;52.202;9.876;2022-09-04T19:37:31;2.95;;;2.67;;
13672;SDS011;6909;52.202;9.876;2022-09-04T19:40:06;2.58;;;2.38;;
13672;SDS011;6909;52.202;9.876;2022-09-04T19:42:38;2.92;;;2.63;;
13672;SDS011;6909;52.202;9.876;2022-09-04T19:45:09;3.28;;;2.42;;
13672;SDS011;6909;52.202;9.876;2022-09-04T19:47:49;4.13;;;2.72;;
13672;SDS011;6909;52.202;9.876;2022-09-04T19:50:30;4.05;;;2.88;;
13672;SDS011;6909;52.202;9.876;2022-09-04T19:53:01;3.80;;;2.75;;
13672;SDS011;6909;52.202;9.876;2022-09-04T19:55:37;2.90;;;2.70;;
13672;SDS011;6909;52.202;9.876;2022-09-04T19:58:09;3.75;;;2.90;;
13672;SDS011;6909;52.202;9.876;2022-09-04T20:00:41;2.65;;;2.45;;
13672;SDS011;6909;52.202;9.876;2022-09-04T20:03:16;3.38;;;2.42;;
13672;SDS011;6909;52.202;9.876;2022-09-04T20:05:50;2.60;;;2.40;;
13672;SDS011;6909;52.202;9.876;2022-09-04T20:08:22;3.08;;;2.78;;
13672;SDS011;6909;52.202;9.876;2022-09-04T20:10:54;3.85;;;2.63;;
13672;SDS011;6909;52.202;9.876;2022-09-04T20:13:27;3.10;;;2.80;;
13672;SDS011;6909;52.202;9.876;2022-09-04T20:16:01;4.47;;;2.70;;
13672;SDS011;6909;52.202;9.876;2022-09-04T20:18:34;4.53;;;2.78;;
13672;SDS011;6909;52.202;9.876;2022-09-04T20:21:07;3.50;;;2.80;;
13672;SDS011;6909;52.202;9.876;2022-09-04T20:23:42;3.97;;;2.70;;
13672;SDS011;6909;52.202;9.876;2022-09-04T20:26:19;2.97;;;2.35;;
13672;SDS011;6909;52.202;9.876;2022-09-04T20:28:51;4.97;;;2.50;;
13672;SDS011;6909;52.202;9.876;2022-09-04T20:31:32;3.10;;;2.63;;
13672;SDS011;6909;52.202;9.876;2022-09-04T20:34:13;2.72;;;2.40;;
13672;SDS011;6909;52.202;9.876;2022-09-04T20:36:51;4.03;;;3.00;;
13672;SDS011;6909;52.202;9.876;2022-09-04T20:39:24;3.80;;;2.90;;
13672;SDS011;6909;52.202;9.876;2022-09-04T20:42:00;2.88;;;2.67;;
13672;SDS011;6909;52.202;9.876;2022-09-04T20:44:33;4.53;;;2.72;;
13672;SDS011;6909;52.202;9.876;2022-09-04T20:47:05;3.40;;;2.83;;
13672;SDS011;6909;52.202;9.876;2022-09-04T20:49:42;5.45;;;2.47;;
13672;SDS011;6909;52.202;9.876;2022-09-04T20:52:22;4.00;;;2.72;;
13672;SDS011;6909;52.202;9.876;2022-09-04T20:55:04;2.60;;;2.40;;
13672;SDS011;6909;52.202;9.876;2022-09-04T21:00:45;3.03;;;2.83;;
13672;SDS011;6909;52.202;9.876;2022-09-04T21:03:17;3.20;;;2.90;;
13672;SDS011;6909;52.202;9.876;2022-09-04T21:05:54;2.92;;;2.72;;
13672;SDS011;6909;52.202;9.876;2022-09-04T21:08:39;2.60;;;2.40;;
13672;SDS011;6909;52.202;9.876;2022-09-04T21:11:14;2.80;;;2.60;;
13672;SDS011;6909;52.202;9.876;2022-09-04T21:13:45;2.67;;;2.47;;
13672;SDS011;6909;52.202;9.876;2022-09-04T21:16:19;3.75;;;2.50;;
13672;SDS011;6909;52.202;9.876;2022-09-04T21:18:58;2.70;;;2.45;;
13672;SDS011;6909;52.202;9.876;2022-09-04T21:25:07;2.92;;;2.63;;
13672;SDS011;6909;52.202;9.876;2022-09-04T21:28:17;2.65;;;2.40;;
13672;SDS011;6909;52.202;9.876;2022-09-04T21:33:42;2.50;;;2.30;;
13672;SDS011;6909;52.202;9.876;2022-09-04T21:36:24;3.40;;;2.65;;
13672;SDS011;6909;52.202;9.876;2022-09-04T21:39:14;2.70;;;2.50;;
13672;SDS011;6909;52.202;9.876;2022-09-04T21:42:07;2.70;;;2.50;;
13672;SDS011;6909;52.202;9.876;2022-09-04T21:45:01;2.63;;;2.42;;
13672;SDS011;6909;52.202;9.876;2022-09-04T21:47:48;5.38;;;2.38;;
13672;SDS011;6909;52.202;9.876;2022-09-04T21:50:41;4.00;;;2.22;;
13672;SDS011;6909;52.202;9.876;2022-09-04T21:53:42;3.15;;;2.60;;
13672;SDS011;6909;52.202;9.876;2022-09-04T21:56:30;2.65;;;2.45;;
13672;SDS011;6909;52.202;9.876;2022-09-04T21:59:13;3.63;;;2.50;;
13672;SDS011;6909;52.202;9.876;2022-09-04T22:01:56;2.95;;;2.30;;
13672;SDS011;6909;52.202;9.876;2022-09-04T22:04:34;2.70;;;2.50;;
13672;SDS011;6909;52.202;9.876;2022-09-04T22:07:10;3.05;;;2.75;;
13672;SDS011;6909;52.202;9.876;2022-09-04T22:12:32;2.50;;;2.30;;
13672;SDS011;6909;52.202;9.876;2022-09-04T22:15:09;2.83;;;2.17;;
13672;SDS011;6909;52.202;9.876;2022-09-04T22:20:47;2.42;;;2.25;;
13672;SDS011;6909;52.202;9.876;2022-09-04T22:23:38;2.50;;;2.30;;
13672;SDS011;6909;52.202;9.876;2022-09-04T22:26:46;3.17;;;2.70;;
13672;SDS011;6909;52.202;9.876;2022-09-04T22:29:35;2.95;;;2.47;;
13672;SDS011;6909;52.202;9.876;2022-09-04T22:35:22;5.10;;;2.78;;
13672;SDS011;6909;52.202;9.876;2022-09-04T22:41:07;2.42;;;2.22;;